sensor_id;sensor_type;location;lat;lon;timestamp;temperature;humidity
7240;DHT22;3661;53.288;10.458;2023-06-22T00:00:29;17.80;99.90
7240;DHT22;3661;53.288;10.458;2023-06-22T00:03:02;17.80;99.90
7240;DHT22;3661;53.288;10.458;2023-06-22T00:05:38;17.80;99.90
7240;DHT22;3661;53.288;10.458;2023-06-22T00:08:10;17.70;99.90
7240;DHT22;3661;53.288;10.458;2023-06-22T00:10:43;17.70;99.90
7240;DHT22;3661;53.288;10.458;2023-06-22T00:13:16;17.70;99.90
7240;DHT22;3661;53.288;10.458;2023-06-22T00:15:48;17.60;99.90
7240;DHT22;3661;53.288;10.458;2023-06-22T00:18:21;17.60;99.90
7240;DHT22;3661;53.288;10.458;2023-06-22T00:20:59;17.60;99.90
7240;DHT22;3661;53.288;10.458;2023-06-22T00:23:32;17.60;99.90
7240;DHT22;3661;53.288;10.458;2023-06-22T00:26:05;17.50;99.90
7240;DHT22;3661;53.288;10.458;2023-06-22T00:28:37;17.50;99.90
7240;DHT22;3661;53.288;10.458;2023-06-22T00:31:09;17.50;99.90
7240;DHT22;3661;53.288;10.458;2023-06-22T00:33:41;17.40;99.90
7240;DHT22;3661;53.288;10.458;2023-06-22T00:36:15;17.40;99.90
7240;DHT22;3661;53.288;10.458;2023-06-22T00:38:48;17.40;99.90
7240;DHT22;3661;53.288;10.458;2023-06-22T00:41:21;17.30;99.90
7240;DHT22;3661;53.288;10.458;2023-06-22T00:43:53;17.30;99.90
7240;DHT22;3661;53.288;10.458;2023-06-22T00:46:25;17.30;99.90
7240;DHT22;3661;53.288;10.458;2023-06-22T00:48:57;17.20;99.90
7240;DHT22;3661;53.288;10.458;2023-06-22T00:51:32;17.20;99.90
7240;DHT22;3661;53.288;10.458;2023-06-22T00:54:05;17.20;99.90
7240;DHT22;3661;53.288;10.458;2023-06-22T00:56:37;17.10;99.90
7240;DHT22;3661;53.288;10.458;2023-06-22T00:59:10;17.10;99.90
7240;DHT22;3661;53.288;10.458;2023-06-22T01:01:45;17.10;99.90
7240;DHT22;3661;53.288;10.458;2023-06-22T01:04:17;17.10;99.90
7240;DHT22;3661;53.288;10.458;2023-06-22T01:06:56;17.10;99.90
7240;DHT22;3661;53.288;10.458;2023-06-22T01:09:33;17.00;99.90
7240;DHT22;3661;53.288;10.458;2023-06-22T01:12:09;17.00;99.90
7240;DHT22;3661;53.288;10.458;2023-06-22T01:14:45;17.00;99.90
7240;DHT22;3661;53.288;10.458;2023-06-22T01:17:19;17.00;99.90
7240;DHT22;3661;53.288;10.458;2023-06-22T01:19:54;16.90;99.90
7240;DHT22;3661;53.288;10.458;2023-06-22T01:22:31;16.90;99.90
7240;DHT22;3661;53.288;10.458;2023-06-22T01:25:10;16.90;99.90
7240;DHT22;3661;53.288;10.458;2023-06-22T01:27:52;16.80;99.90
7240;DHT22;3661;53.288;10.458;2023-06-22T01:30:28;16.80;99.90
7240;DHT22;3661;53.288;10.458;2023-06-22T01:33:01;16.80;99.90
7240;DHT22;3661;53.288;10.458;2023-06-22T01:35:36;16.80;99.90
7240;DHT22;3661;53.288;10.458;2023-06-22T01:38:09;16.80;99.90
7240;DHT22;3661;53.288;10.458;2023-06-22T01:40:41;16.70;99.90
7240;DHT22;3661;53.288;10.458;2023-06-22T01:43:14;16.70;99.90
7240;DHT22;3661;53.288;10.458;2023-06-22T01:45:49;16.70;99.90
7240;DHT22;3661;53.288;10.458;2023-06-22T01:48:22;16.70;99.90
7240;DHT22;3661;53.288;10.458;2023-06-22T01:50:58;16.60;99.90
7240;DHT22;3661;53.288;10.458;2023-06-22T01:53:30;16.60;99.90
7240;DHT22;3661;53.288;10.458;2023-06-22T01:56:03;16.60;99.90
7240;DHT22;3661;53.288;10.458;2023-06-22T01:58:39;16.60;99.90
7240;DHT22;3661;53.288;10.458;2023-06-22T02:01:22;16.60;99.90
7240;DHT22;3661;53.288;10.458;2023-06-22T02:04:03;16.50;99.90
7240;DHT22;3661;53.288;10.458;2023-06-22T02:06:38;16.50;99.90
7240;DHT22;3661;53.288;10.458;2023-06-22T02:09:14;16.50;99.90
7240;DHT22;3661;53.288;10.458;2023-06-22T02:11:47;16.40;99.90
7240;DHT22;3661;53.288;10.458;2023-06-22T02:14:22;16.40;99.90
7240;DHT22;3661;53.288;10.458;2023-06-22T02:16:56;16.40;99.90
7240;DHT22;3661;53.288;10.458;2023-06-22T02:19:31;16.30;99.90
7240;DHT22;3661;53.288;10.458;2023-06-22T02:22:04;16.30;99.90
7240;DHT22;3661;53.288;10.458;2023-06-22T02:24:36;16.30;99.90
7240;DHT22;3661;53.288;10.458;2023-06-22T02:27:08;16.30;99.90
7240;DHT22;3661;53.288;10.458;2023-06-22T02:29:42;16.30;99.90
7240;DHT22;3661;53.288;10.458;2023-06-22T02:32:16;16.20;99.90
7240;DHT22;3661;53.288;10.458;2023-06-22T02:34:48;16.20;99.90
7240;DHT22;3661;53.288;10.458;2023-06-22T02:37:20;16.20;99.90
7240;DHT22;3661;53.288;10.458;2023-06-22T02:39:55;16.20;99.90
7240;DHT22;3661;53.288;10.458;2023-06-22T02:42:28;16.20;99.90
7240;DHT22;3661;53.288;10.458;2023-06-22T02:45:00;16.10;99.90
7240;DHT22;3661;53.288;10.458;2023-06-22T02:47:34;16.10;99.90
7240;DHT22;3661;53.288;10.458;2023-06-22T02:50:08;16.10;99.90
7240;DHT22;3661;53.288;10.458;2023-06-22T02:52:42;16.10;99.90
7240;DHT22;3661;53.288;10.458;2023-06-22T02:55:14;16.10;99.90
7240;DHT22;3661;53.288;10.458;2023-06-22T02:57:48;16.10;99.90
7240;DHT22;3661;53.288;10.458;2023-06-22T03:00:23;16.10;99.90
7240;DHT22;3661;53.288;10.458;2023-06-22T03:03:04;16.00;99.90
7240;DHT22;3661;53.288;10.458;2023-06-22T03:05:37;16.00;99.90
7240;DHT22;3661;53.288;10.458;2023-06-22T03:08:11;16.00;99.90
7240;DHT22;3661;53.288;10.458;2023-06-22T03:10:43;16.00;99.90
7240;DHT22;3661;53.288;10.458;2023-06-22T03:13:15;16.00;99.90
7240;DHT22;3661;53.288;10.458;2023-06-22T03:15:47;16.00;99.90
7240;DHT22;3661;53.288;10.458;2023-06-22T03:18:21;16.00;99.90
7240;DHT22;3661;53.288;10.458;2023-06-22T03:20:53;16.00;99.90
7240;DHT22;3661;53.288;10.458;2023-06-22T03:23:26;16.00;99.90
7240;DHT22;3661;53.288;10.458;2023-06-22T03:26:00;16.00;99.90
7240;DHT22;3661;53.288;10.458;2023-06-22T03:28:32;16.00;99.90
7240;DHT22;3661;53.288;10.458;2023-06-22T03:31:04;16.00;99.90
7240;DHT22;3661;53.288;10.458;2023-06-22T03:33:39;16.00;99.90
7240;DHT22;3661;53.288;10.458;2023-06-22T03:36:13;16.00;99.90
7240;DHT22;3661;53.288;10.458;2023-06-22T03:38:48;16.00;99.90
7240;DHT22;3661;53.288;10.458;2023-06-22T03:41:20;16.00;99.90
7240;DHT22;3661;53.288;10.458;2023-06-22T03:43:53;16.00;99.90
7240;DHT22;3661;53.288;10.458;2023-06-22T03:46:25;16.00;99.90
7240;DHT22;3661;53.288;10.458;2023-06-22T03:49:00;16.00;99.90
7240;DHT22;3661;53.288;10.458;2023-06-22T03:51:33;16.00;99.90
7240;DHT22;3661;53.288;10.458;2023-06-22T03:54:08;16.10;99.90
7240;DHT22;3661;53.288;10.458;2023-06-22T03:56:40;16.10;99.90
7240;DHT22;3661;53.288;10.458;2023-06-22T03:59:13;16.10;99.90
7240;DHT22;3661;53.288;10.458;2023-06-22T04:01:45;16.10;99.90
7240;DHT22;3661;53.288;10.458;2023-06-22T04:04:19;16.10;99.90
7240;DHT22;3661;53.288;10.458;2023-06-22T04:06:52;16.20;99.90
7240;DHT22;3661;53.288;10.458;2023-06-22T04:09:25;16.20;99.90
7240;DHT22;3661;53.288;10.458;2023-06-22T04:11:58;16.30;99.90
7240;DHT22;3661;53.288;10.458;2023-06-22T04:14:30;16.30;99.90
7240;DHT22;3661;53.288;10.458;2023-06-22T04:17:02;16.30;99.90
7240;DHT22;3661;53.288;10.458;2023-06-22T04:19:36;16.40;99.90
7240;DHT22;3661;53.288;10.458;2023-06-22T04:22:08;16.40;99.90
7240;DHT22;3661;53.288;10.458;2023-06-22T04:24:41;16.50;99.90
7240;DHT22;3661;53.288;10.458;2023-06-22T04:27:13;16.50;99.90
7240;DHT22;3661;53.288;10.458;2023-06-22T04:29:45;16.50;99.90
7240;DHT22;3661;53.288;10.458;2023-06-22T04:32:19;16.60;99.90
7240;DHT22;3661;53.288;10.458;2023-06-22T04:34:53;16.60;99.90
7240;DHT22;3661;53.288;10.458;2023-06-22T04:37:27;16.60;99.90
7240;DHT22;3661;53.288;10.458;2023-06-22T04:40:00;16.70;99.90
7240;DHT22;3661;53.288;10.458;2023-06-22T04:42:37;16.70;99.90
7240;DHT22;3661;53.288;10.458;2023-06-22T04:45:10;16.80;99.90
7240;DHT22;3661;53.288;10.458;2023-06-22T04:47:43;16.80;99.90
7240;DHT22;3661;53.288;10.458;2023-06-22T04:50:17;16.90;99.90
7240;DHT22;3661;53.288;10.458;2023-06-22T04:52:52;16.90;99.90
7240;DHT22;3661;53.288;10.458;2023-06-22T04:55:24;16.90;99.90
7240;DHT22;3661;53.288;10.458;2023-06-22T04:57:56;17.00;99.90
7240;DHT22;3661;53.288;10.458;2023-06-22T05:00:35;17.10;99.90
7240;DHT22;3661;53.288;10.458;2023-06-22T05:03:08;17.10;99.90
7240;DHT22;3661;53.288;10.458;2023-06-22T05:05:43;17.10;99.90
7240;DHT22;3661;53.288;10.458;2023-06-22T05:08:15;17.20;99.90
7240;DHT22;3661;53.288;10.458;2023-06-22T05:10:48;17.20;99.90
7240;DHT22;3661;53.288;10.458;2023-06-22T05:13:21;17.30;99.90
7240;DHT22;3661;53.288;10.458;2023-06-22T05:15:57;17.30;99.90
7240;DHT22;3661;53.288;10.458;2023-06-22T05:18:32;17.40;99.90
7240;DHT22;3661;53.288;10.458;2023-06-22T05:21:07;17.40;99.90
7240;DHT22;3661;53.288;10.458;2023-06-22T05:23:39;17.50;99.90
7240;DHT22;3661;53.288;10.458;2023-06-22T05:26:11;17.50;99.90
7240;DHT22;3661;53.288;10.458;2023-06-22T05:28:43;17.60;99.90
7240;DHT22;3661;53.288;10.458;2023-06-22T05:31:17;17.60;99.90
7240;DHT22;3661;53.288;10.458;2023-06-22T05:33:52;17.70;99.90
7240;DHT22;3661;53.288;10.458;2023-06-22T05:36:26;17.80;99.90
7240;DHT22;3661;53.288;10.458;2023-06-22T05:38:58;17.80;99.90
7240;DHT22;3661;53.288;10.458;2023-06-22T05:41:30;17.90;99.90
7240;DHT22;3661;53.288;10.458;2023-06-22T05:44:02;17.90;99.90
7240;DHT22;3661;53.288;10.458;2023-06-22T05:46:35;18.00;99.90
7240;DHT22;3661;53.288;10.458;2023-06-22T05:49:07;18.00;99.90
7240;DHT22;3661;53.288;10.458;2023-06-22T05:51:41;18.10;99.90
7240;DHT22;3661;53.288;10.458;2023-06-22T05:54:13;18.10;99.90
7240;DHT22;3661;53.288;10.458;2023-06-22T05:56:48;18.20;99.90
7240;DHT22;3661;53.288;10.458;2023-06-22T05:59:20;18.30;99.90
7240;DHT22;3661;53.288;10.458;2023-06-22T06:01:52;18.30;99.90
7240;DHT22;3661;53.288;10.458;2023-06-22T06:04:24;18.40;99.90
7240;DHT22;3661;53.288;10.458;2023-06-22T06:07:00;18.50;99.90
7240;DHT22;3661;53.288;10.458;2023-06-22T06:09:33;18.50;99.90
7240;DHT22;3661;53.288;10.458;2023-06-22T06:12:05;18.60;99.90
7240;DHT22;3661;53.288;10.458;2023-06-22T06:14:40;18.70;99.90
7240;DHT22;3661;53.288;10.458;2023-06-22T06:17:12;18.70;99.90
7240;DHT22;3661;53.288;10.458;2023-06-22T06:19:44;18.80;99.90
7240;DHT22;3661;53.288;10.458;2023-06-22T06:22:18;18.80;99.90
7240;DHT22;3661;53.288;10.458;2023-06-22T06:24:52;18.90;99.90
7240;DHT22;3661;53.288;10.458;2023-06-22T06:27:24;19.00;99.90
7240;DHT22;3661;53.288;10.458;2023-06-22T06:29:59;19.10;99.90
7240;DHT22;3661;53.288;10.458;2023-06-22T06:32:32;19.10;99.90
7240;DHT22;3661;53.288;10.458;2023-06-22T06:35:05;19.20;99.90
7240;DHT22;3661;53.288;10.458;2023-06-22T06:37:41;19.30;99.90
7240;DHT22;3661;53.288;10.458;2023-06-22T06:40:16;19.40;99.90
7240;DHT22;3661;53.288;10.458;2023-06-22T06:42:49;19.50;99.90
7240;DHT22;3661;53.288;10.458;2023-06-22T06:45:22;19.50;99.90
7240;DHT22;3661;53.288;10.458;2023-06-22T06:47:54;19.60;99.90
7240;DHT22;3661;53.288;10.458;2023-06-22T06:50:28;19.70;99.90
7240;DHT22;3661;53.288;10.458;2023-06-22T06:53:01;19.80;99.90
7240;DHT22;3661;53.288;10.458;2023-06-22T06:55:33;19.80;99.90
7240;DHT22;3661;53.288;10.458;2023-06-22T06:58:06;20.00;99.90
7240;DHT22;3661;53.288;10.458;2023-06-22T07:00:40;20.00;99.90
7240;DHT22;3661;53.288;10.458;2023-06-22T07:03:12;20.10;99.90
7240;DHT22;3661;53.288;10.458;2023-06-22T07:05:44;20.20;99.90
7240;DHT22;3661;53.288;10.458;2023-06-22T07:08:18;20.30;99.90
7240;DHT22;3661;53.288;10.458;2023-06-22T07:10:50;20.30;99.90
7240;DHT22;3661;53.288;10.458;2023-06-22T07:13:22;20.40;99.90
7240;DHT22;3661;53.288;10.458;2023-06-22T07:15:54;20.50;99.90
7240;DHT22;3661;53.288;10.458;2023-06-22T07:18:26;20.50;99.90
7240;DHT22;3661;53.288;10.458;2023-06-22T07:20:58;20.60;99.90
7240;DHT22;3661;53.288;10.458;2023-06-22T07:23:32;20.70;99.90
7240;DHT22;3661;53.288;10.458;2023-06-22T07:26:04;20.80;99.90
7240;DHT22;3661;53.288;10.458;2023-06-22T07:28:37;20.90;99.90
7240;DHT22;3661;53.288;10.458;2023-06-22T07:31:11;21.00;99.90
7240;DHT22;3661;53.288;10.458;2023-06-22T07:33:46;21.10;99.90
7240;DHT22;3661;53.288;10.458;2023-06-22T07:36:18;21.20;99.90
7240;DHT22;3661;53.288;10.458;2023-06-22T07:38:52;21.30;99.90
7240;DHT22;3661;53.288;10.458;2023-06-22T07:41:24;21.40;99.90
7240;DHT22;3661;53.288;10.458;2023-06-22T07:43:56;21.50;99.90
7240;DHT22;3661;53.288;10.458;2023-06-22T07:46:28;21.60;99.90
7240;DHT22;3661;53.288;10.458;2023-06-22T07:49:02;21.60;99.90
7240;DHT22;3661;53.288;10.458;2023-06-22T07:51:34;21.70;99.90
7240;DHT22;3661;53.288;10.458;2023-06-22T07:54:09;21.80;99.90
7240;DHT22;3661;53.288;10.458;2023-06-22T07:56:41;21.90;99.90
7240;DHT22;3661;53.288;10.458;2023-06-22T07:59:13;21.90;99.90
7240;DHT22;3661;53.288;10.458;2023-06-22T08:01:45;22.00;99.90
7240;DHT22;3661;53.288;10.458;2023-06-22T08:04:19;22.10;99.90
7240;DHT22;3661;53.288;10.458;2023-06-22T08:06:51;22.20;99.90
7240;DHT22;3661;53.288;10.458;2023-06-22T08:09:27;22.30;99.90
7240;DHT22;3661;53.288;10.458;2023-06-22T08:11:59;22.40;99.90
7240;DHT22;3661;53.288;10.458;2023-06-22T08:14:37;22.50;99.90
7240;DHT22;3661;53.288;10.458;2023-06-22T08:17:09;22.50;99.90
7240;DHT22;3661;53.288;10.458;2023-06-22T08:19:42;22.60;99.90
7240;DHT22;3661;53.288;10.458;2023-06-22T08:22:15;22.70;99.90
7240;DHT22;3661;53.288;10.458;2023-06-22T08:24:49;22.80;99.90
7240;DHT22;3661;53.288;10.458;2023-06-22T08:27:21;22.90;99.90
7240;DHT22;3661;53.288;10.458;2023-06-22T08:29:54;23.00;99.90
7240;DHT22;3661;53.288;10.458;2023-06-22T08:32:29;23.10;99.90
7240;DHT22;3661;53.288;10.458;2023-06-22T08:35:05;23.20;99.90
7240;DHT22;3661;53.288;10.458;2023-06-22T08:37:39;23.30;99.90
7240;DHT22;3661;53.288;10.458;2023-06-22T08:40:12;23.40;99.90
7240;DHT22;3661;53.288;10.458;2023-06-22T08:42:45;23.50;99.90
7240;DHT22;3661;53.288;10.458;2023-06-22T08:45:18;23.70;99.90
7240;DHT22;3661;53.288;10.458;2023-06-22T08:47:51;23.70;99.90
7240;DHT22;3661;53.288;10.458;2023-06-22T08:50:23;23.90;99.90
7240;DHT22;3661;53.288;10.458;2023-06-22T08:52:55;24.00;99.90
7240;DHT22;3661;53.288;10.458;2023-06-22T08:55:28;24.10;99.90
7240;DHT22;3661;53.288;10.458;2023-06-22T08:58:00;24.20;99.90
7240;DHT22;3661;53.288;10.458;2023-06-22T09:00:35;24.40;99.90
7240;DHT22;3661;53.288;10.458;2023-06-22T09:03:09;24.50;99.90
7240;DHT22;3661;53.288;10.458;2023-06-22T09:05:42;24.60;99.90
7240;DHT22;3661;53.288;10.458;2023-06-22T09:08:14;24.80;99.90
7240;DHT22;3661;53.288;10.458;2023-06-22T09:14:15;25.00;99.90
7240;DHT22;3661;53.288;10.458;2023-06-22T09:16:49;25.20;99.90
7240;DHT22;3661;53.288;10.458;2023-06-22T09:19:25;25.30;99.90
7240;DHT22;3661;53.288;10.458;2023-06-22T09:21:58;25.50;99.90
7240;DHT22;3661;53.288;10.458;2023-06-22T09:24:30;25.60;99.90
7240;DHT22;3661;53.288;10.458;2023-06-22T09:27:03;25.80;99.90
7240;DHT22;3661;53.288;10.458;2023-06-22T09:29:36;25.80;99.90
7240;DHT22;3661;53.288;10.458;2023-06-22T09:32:09;26.00;99.90
7240;DHT22;3661;53.288;10.458;2023-06-22T09:34:41;26.10;99.90
7240;DHT22;3661;53.288;10.458;2023-06-22T09:37:13;26.20;99.90
7240;DHT22;3661;53.288;10.458;2023-06-22T09:39:45;26.40;99.90
7240;DHT22;3661;53.288;10.458;2023-06-22T09:42:17;26.50;99.90
7240;DHT22;3661;53.288;10.458;2023-06-22T09:44:54;26.60;99.90
7240;DHT22;3661;53.288;10.458;2023-06-22T09:47:26;26.70;99.90
7240;DHT22;3661;53.288;10.458;2023-06-22T09:49:59;26.90;99.90
7240;DHT22;3661;53.288;10.458;2023-06-22T09:52:33;27.00;99.90
7240;DHT22;3661;53.288;10.458;2023-06-22T09:55:05;27.10;99.90
7240;DHT22;3661;53.288;10.458;2023-06-22T10:03:00;27.60;99.90
7240;DHT22;3661;53.288;10.458;2023-06-22T10:05:32;27.70;99.90
7240;DHT22;3661;53.288;10.458;2023-06-22T10:24:45;28.50;99.90
7240;DHT22;3661;53.288;10.458;2023-06-22T10:27:17;28.60;99.90
7240;DHT22;3661;53.288;10.458;2023-06-22T10:29:49;28.70;99.90
7240;DHT22;3661;53.288;10.458;2023-06-22T10:32:21;28.80;99.90
7240;DHT22;3661;53.288;10.458;2023-06-22T10:34:53;29.00;99.90
7240;DHT22;3661;53.288;10.458;2023-06-22T10:37:25;29.10;99.90
7240;DHT22;3661;53.288;10.458;2023-06-22T10:39:59;29.20;99.90
7240;DHT22;3661;53.288;10.458;2023-06-22T10:45:11;29.40;99.60
7240;DHT22;3661;53.288;10.458;2023-06-22T10:47:44;29.50;99.50
7240;DHT22;3661;53.288;10.458;2023-06-22T10:50:17;29.50;99.20
7240;DHT22;3661;53.288;10.458;2023-06-22T10:52:50;29.60;98.70
7240;DHT22;3661;53.288;10.458;2023-06-22T10:55:24;29.60;98.10
7240;DHT22;3661;53.288;10.458;2023-06-22T10:57:56;29.60;97.80
7240;DHT22;3661;53.288;10.458;2023-06-22T11:00:28;29.60;97.90
7240;DHT22;3661;53.288;10.458;2023-06-22T11:03:00;29.60;97.80
7240;DHT22;3661;53.288;10.458;2023-06-22T11:05:32;29.60;97.80
7240;DHT22;3661;53.288;10.458;2023-06-22T11:08:05;29.60;97.70
7240;DHT22;3661;53.288;10.458;2023-06-22T11:10:38;29.50;97.50
7240;DHT22;3661;53.288;10.458;2023-06-22T11:13:11;29.50;97.60
7240;DHT22;3661;53.288;10.458;2023-06-22T11:15:43;29.40;97.80
7240;DHT22;3661;53.288;10.458;2023-06-22T11:18:15;29.40;97.70
7240;DHT22;3661;53.288;10.458;2023-06-22T11:20:47;29.40;97.60
7240;DHT22;3661;53.288;10.458;2023-06-22T11:23:24;29.30;97.50
7240;DHT22;3661;53.288;10.458;2023-06-22T11:26:00;29.30;97.20
7240;DHT22;3661;53.288;10.458;2023-06-22T11:28:32;29.20;97.10
7240;DHT22;3661;53.288;10.458;2023-06-22T11:31:04;29.20;96.90
7240;DHT22;3661;53.288;10.458;2023-06-22T11:33:37;29.10;97.30
7240;DHT22;3661;53.288;10.458;2023-06-22T11:36:10;29.10;96.90
7240;DHT22;3661;53.288;10.458;2023-06-22T11:38:43;29.10;96.80
7240;DHT22;3661;53.288;10.458;2023-06-22T11:41:19;29.00;96.90
7240;DHT22;3661;53.288;10.458;2023-06-22T11:43:52;29.00;96.80
7240;DHT22;3661;53.288;10.458;2023-06-22T11:49:53;29.00;97.10
7240;DHT22;3661;53.288;10.458;2023-06-22T11:52:25;29.00;96.70
7240;DHT22;3661;53.288;10.458;2023-06-22T11:54:58;29.00;96.70
7240;DHT22;3661;53.288;10.458;2023-06-22T11:57:36;28.90;96.70
7240;DHT22;3661;53.288;10.458;2023-06-22T12:00:11;28.90;96.90
7240;DHT22;3661;53.288;10.458;2023-06-22T12:02:49;28.90;96.90
7240;DHT22;3661;53.288;10.458;2023-06-22T12:05:23;28.90;96.80
7240;DHT22;3661;53.288;10.458;2023-06-22T12:08:10;28.80;97.20
7240;DHT22;3661;53.288;10.458;2023-06-22T12:10:42;28.70;96.80
7240;DHT22;3661;53.288;10.458;2023-06-22T12:13:16;28.60;96.70
7240;DHT22;3661;53.288;10.458;2023-06-22T12:15:49;28.60;96.90
7240;DHT22;3661;53.288;10.458;2023-06-22T12:18:22;28.60;97.20
7240;DHT22;3661;53.288;10.458;2023-06-22T12:28:57;28.40;96.90
7240;DHT22;3661;53.288;10.458;2023-06-22T12:31:31;28.40;97.10
7240;DHT22;3661;53.288;10.458;2023-06-22T12:34:04;28.40;97.40
7240;DHT22;3661;53.288;10.458;2023-06-22T12:41:59;28.30;97.20
7240;DHT22;3661;53.288;10.458;2023-06-22T12:44:43;28.30;97.20
7240;DHT22;3661;53.288;10.458;2023-06-22T12:52:39;28.20;97.10
7240;DHT22;3661;53.288;10.458;2023-06-22T12:55:15;28.10;97.20
7240;DHT22;3661;53.288;10.458;2023-06-22T12:57:57;28.10;97.40
7240;DHT22;3661;53.288;10.458;2023-06-22T13:00:32;28.10;97.50
7240;DHT22;3661;53.288;10.458;2023-06-22T13:03:05;28.10;97.70
7240;DHT22;3661;53.288;10.458;2023-06-22T13:05:37;28.10;97.80
7240;DHT22;3661;53.288;10.458;2023-06-22T13:08:10;28.00;97.60
7240;DHT22;3661;53.288;10.458;2023-06-22T13:10:43;28.00;97.60
7240;DHT22;3661;53.288;10.458;2023-06-22T13:13:29;28.00;97.70
7240;DHT22;3661;53.288;10.458;2023-06-22T13:16:03;28.10;98.00
7240;DHT22;3661;53.288;10.458;2023-06-22T13:18:35;28.10;98.00
7240;DHT22;3661;53.288;10.458;2023-06-22T13:21:08;28.00;97.80
7240;DHT22;3661;53.288;10.458;2023-06-22T13:23:40;28.00;97.80
7240;DHT22;3661;53.288;10.458;2023-06-22T13:26:12;28.00;97.90
7240;DHT22;3661;53.288;10.458;2023-06-22T13:28:46;27.90;98.00
7240;DHT22;3661;53.288;10.458;2023-06-22T13:31:34;27.90;98.00
7240;DHT22;3661;53.288;10.458;2023-06-22T13:34:07;27.80;98.00
7240;DHT22;3661;53.288;10.458;2023-06-22T13:36:39;27.80;98.10
7240;DHT22;3661;53.288;10.458;2023-06-22T13:39:17;27.70;98.20
7240;DHT22;3661;53.288;10.458;2023-06-22T13:41:51;27.70;98.40
7240;DHT22;3661;53.288;10.458;2023-06-22T13:47:06;27.60;98.30
7240;DHT22;3661;53.288;10.458;2023-06-22T13:49:39;27.50;98.30
7240;DHT22;3661;53.288;10.458;2023-06-22T13:52:14;27.50;98.50
7240;DHT22;3661;53.288;10.458;2023-06-22T13:54:48;27.40;98.50
7240;DHT22;3661;53.288;10.458;2023-06-22T13:57:21;27.40;98.60
7240;DHT22;3661;53.288;10.458;2023-06-22T13:59:53;27.30;98.70
7240;DHT22;3661;53.288;10.458;2023-06-22T14:02:27;27.30;98.70
7240;DHT22;3661;53.288;10.458;2023-06-22T14:05:09;27.30;98.80
7240;DHT22;3661;53.288;10.458;2023-06-22T14:07:43;27.30;98.80
7240;DHT22;3661;53.288;10.458;2023-06-22T14:10:17;27.30;98.80
7240;DHT22;3661;53.288;10.458;2023-06-22T14:12:50;27.30;98.90
7240;DHT22;3661;53.288;10.458;2023-06-22T14:15:24;27.30;98.90
7240;DHT22;3661;53.288;10.458;2023-06-22T14:17:58;27.30;98.90
7240;DHT22;3661;53.288;10.458;2023-06-22T14:20:30;27.20;98.90
7240;DHT22;3661;53.288;10.458;2023-06-22T14:23:02;27.30;99.10
7240;DHT22;3661;53.288;10.458;2023-06-22T14:25:34;27.20;99.10
7240;DHT22;3661;53.288;10.458;2023-06-22T14:28:06;27.20;99.20
7240;DHT22;3661;53.288;10.458;2023-06-22T14:30:38;27.20;99.20
7240;DHT22;3661;53.288;10.458;2023-06-22T14:33:12;27.10;99.20
7240;DHT22;3661;53.288;10.458;2023-06-22T14:35:44;27.10;99.30
7240;DHT22;3661;53.288;10.458;2023-06-22T14:38:16;27.10;99.30
7240;DHT22;3661;53.288;10.458;2023-06-22T14:40:48;27.10;99.50
7240;DHT22;3661;53.288;10.458;2023-06-22T14:43:20;27.10;99.60
7240;DHT22;3661;53.288;10.458;2023-06-22T14:45:52;27.10;99.70
7240;DHT22;3661;53.288;10.458;2023-06-22T14:48:26;27.10;99.80
7240;DHT22;3661;53.288;10.458;2023-06-22T14:50:58;27.10;99.90
7240;DHT22;3661;53.288;10.458;2023-06-22T14:53:31;27.10;99.80
7240;DHT22;3661;53.288;10.458;2023-06-22T14:56:03;27.10;99.80
7240;DHT22;3661;53.288;10.458;2023-06-22T14:58:35;27.10;99.70
7240;DHT22;3661;53.288;10.458;2023-06-22T15:01:07;27.10;99.80
7240;DHT22;3661;53.288;10.458;2023-06-22T15:03:41;27.10;99.80
7240;DHT22;3661;53.288;10.458;2023-06-22T15:06:13;27.10;99.90
7240;DHT22;3661;53.288;10.458;2023-06-22T15:08:46;27.10;99.90
7240;DHT22;3661;53.288;10.458;2023-06-22T15:11:19;27.00;99.90
7240;DHT22;3661;53.288;10.458;2023-06-22T15:13:51;27.00;99.90
7240;DHT22;3661;53.288;10.458;2023-06-22T15:16:23;27.00;99.90
7240;DHT22;3661;53.288;10.458;2023-06-22T15:18:57;26.90;99.90
7240;DHT22;3661;53.288;10.458;2023-06-22T15:21:29;26.90;99.90
7240;DHT22;3661;53.288;10.458;2023-06-22T15:24:02;26.80;99.90
7240;DHT22;3661;53.288;10.458;2023-06-22T15:26:34;26.80;99.90
7240;DHT22;3661;53.288;10.458;2023-06-22T15:29:06;26.80;99.90
7240;DHT22;3661;53.288;10.458;2023-06-22T15:31:38;26.70;99.90
7240;DHT22;3661;53.288;10.458;2023-06-22T15:34:13;26.70;99.90
7240;DHT22;3661;53.288;10.458;2023-06-22T15:36:45;26.60;99.90
7240;DHT22;3661;53.288;10.458;2023-06-22T15:39:17;26.60;99.90
7240;DHT22;3661;53.288;10.458;2023-06-22T15:41:49;26.50;99.90
7240;DHT22;3661;53.288;10.458;2023-06-22T15:44:24;26.60;99.90
7240;DHT22;3661;53.288;10.458;2023-06-22T15:46:56;26.60;99.90
7240;DHT22;3661;53.288;10.458;2023-06-22T15:49:30;26.60;99.90
7240;DHT22;3661;53.288;10.458;2023-06-22T15:52:08;26.60;99.90
7240;DHT22;3661;53.288;10.458;2023-06-22T15:54:43;26.60;99.90
7240;DHT22;3661;53.288;10.458;2023-06-22T15:57:15;26.60;99.90
7240;DHT22;3661;53.288;10.458;2023-06-22T15:59:47;26.60;99.90
7240;DHT22;3661;53.288;10.458;2023-06-22T16:02:22;26.60;99.90
7240;DHT22;3661;53.288;10.458;2023-06-22T16:05:02;26.50;99.90
7240;DHT22;3661;53.288;10.458;2023-06-22T16:07:34;26.50;99.90
7240;DHT22;3661;53.288;10.458;2023-06-22T16:10:07;26.50;99.90
7240;DHT22;3661;53.288;10.458;2023-06-22T16:12:42;26.50;99.90
7240;DHT22;3661;53.288;10.458;2023-06-22T16:15:15;26.50;99.90
7240;DHT22;3661;53.288;10.458;2023-06-22T16:17:47;26.50;99.90
7240;DHT22;3661;53.288;10.458;2023-06-22T16:20:26;26.40;99.90
7240;DHT22;3661;53.288;10.458;2023-06-22T16:29:06;26.30;99.90
7240;DHT22;3661;53.288;10.458;2023-06-22T16:31:38;26.20;99.90
7240;DHT22;3661;53.288;10.458;2023-06-22T16:34:10;26.10;99.90
7240;DHT22;3661;53.288;10.458;2023-06-22T16:36:44;26.10;99.90
7240;DHT22;3661;53.288;10.458;2023-06-22T16:39:16;26.00;99.90
7240;DHT22;3661;53.288;10.458;2023-06-22T16:41:48;25.90;99.90
7240;DHT22;3661;53.288;10.458;2023-06-22T16:44:20;25.80;99.90
7240;DHT22;3661;53.288;10.458;2023-06-22T16:46:54;25.80;99.90
7240;DHT22;3661;53.288;10.458;2023-06-22T16:49:26;25.80;99.90
7240;DHT22;3661;53.288;10.458;2023-06-22T16:51:59;25.70;99.90
7240;DHT22;3661;53.288;10.458;2023-06-22T16:54:32;25.60;99.90
7240;DHT22;3661;53.288;10.458;2023-06-22T16:57:05;25.50;99.90
7240;DHT22;3661;53.288;10.458;2023-06-22T16:59:37;25.50;99.90
7240;DHT22;3661;53.288;10.458;2023-06-22T17:02:15;25.50;99.90
7240;DHT22;3661;53.288;10.458;2023-06-22T17:04:48;25.40;99.90
7240;DHT22;3661;53.288;10.458;2023-06-22T17:07:26;25.30;99.90
7240;DHT22;3661;53.288;10.458;2023-06-22T17:09:59;25.30;99.90
7240;DHT22;3661;53.288;10.458;2023-06-22T17:12:33;25.20;99.90
7240;DHT22;3661;53.288;10.458;2023-06-22T17:15:12;25.20;99.90
7240;DHT22;3661;53.288;10.458;2023-06-22T17:17:55;25.10;99.90
7240;DHT22;3661;53.288;10.458;2023-06-22T17:20:28;25.00;99.90
7240;DHT22;3661;53.288;10.458;2023-06-22T17:23:03;25.00;99.90